createdAt,value
2022-09-14T00:00:08.906Z,21.90
2022-09-14T00:02:11.877Z,21.80
2022-09-14T00:04:18.307Z,21.70
2022-09-14T00:06:21.019Z,21.70
2022-09-14T00:08:23.674Z,21.80
2022-09-14T00:10:26.381Z,21.80
2022-09-14T00:12:29.065Z,21.90
2022-09-14T00:14:31.704Z,22.00
2022-09-14T00:16:37.110Z,22.00
2022-09-14T00:18:39.869Z,22.00
2022-09-14T00:20:43.850Z,22.10
2022-09-14T00:22:46.544Z,22.10
2022-09-14T00:24:49.263Z,22.10
2022-09-14T00:26:52.848Z,22.20
2022-09-14T00:28:58.920Z,22.20
2022-09-14T00:31:01.594Z,22.20
2022-09-14T00:33:04.403Z,22.20
2022-09-14T00:35:07.816Z,22.20
2022-09-14T00:37:12.590Z,22.20
2022-09-14T00:39:17.194Z,22.20
2022-09-14T00:41:22.816Z,22.20
2022-09-14T00:43:25.829Z,22.20
2022-09-14T00:45:28.872Z,22.20
2022-09-14T00:47:33.571Z,22.20
2022-09-14T00:49:38.804Z,22.10
2022-09-14T00:51:48.182Z,22.10
2022-09-14T00:53:52.363Z,22.00
2022-09-14T00:55:55.189Z,21.90
2022-09-14T00:57:57.965Z,21.80
2022-09-14T01:00:01.128Z,21.60
2022-09-14T01:02:04.843Z,21.50
2022-09-14T01:04:07.593Z,21.50
2022-09-14T01:06:18.332Z,21.50
2022-09-14T01:08:36.055Z,21.50
2022-09-14T01:10:52.818Z,21.40
2022-09-14T01:13:08.416Z,21.40
2022-09-14T01:15:20.222Z,21.20
2022-09-14T01:17:28.365Z,21.10
2022-09-14T01:19:43.163Z,21.00
2022-09-14T01:21:46.635Z,20.80
2022-09-14T01:23:55.689Z,20.60
2022-09-14T01:26:37.399Z,20.60
2022-09-14T01:28:44.430Z,20.60
2022-09-14T01:30:49.077Z,20.50
2022-09-14T01:32:55.325Z,20.60
2022-09-14T01:35:04.728Z,20.70
2022-09-14T01:37:13.189Z,20.60
2022-09-14T01:39:18.892Z,20.70
2022-09-14T01:41:26.243Z,20.80
2022-09-14T01:43:36.252Z,20.70
2022-09-14T01:45:45.274Z,20.60
2022-09-14T01:47:52.084Z,20.50
2022-09-14T01:49:59.874Z,20.40
2022-09-14T01:52:07.005Z,20.40
2022-09-14T01:54:14.684Z,20.30
2022-09-14T01:56:21.114Z,20.20
2022-09-14T01:58:30.078Z,20.20
2022-09-14T02:00:34.448Z,20.30
2022-09-14T02:02:42.380Z,20.40
2022-09-14T02:04:55.639Z,20.40
2022-09-14T02:06:58.470Z,20.50
2022-09-14T02:09:01.389Z,20.50
2022-09-14T02:11:04.229Z,20.50
2022-09-14T02:13:07.769Z,20.50
2022-09-14T02:15:13.678Z,20.60
2022-09-14T02:17:16.767Z,20.60
2022-09-14T02:19:23.798Z,20.50
2022-09-14T02:21:29.796Z,20.60
2022-09-14T02:23:32.716Z,20.60
2022-09-14T02:25:36.365Z,20.70
2022-09-14T02:27:39.158Z,20.80
2022-09-14T02:29:42.428Z,20.80
2022-09-14T02:31:55.715Z,20.80
2022-09-14T02:34:06.513Z,20.60
2022-09-14T02:36:17.601Z,20.70
2022-09-14T02:38:28.059Z,20.70
2022-09-14T02:40:36.355Z,20.70
2022-09-14T02:42:48.822Z,20.60
2022-09-14T02:45:05.163Z,20.60
2022-09-14T02:47:16.139Z,20.70
2022-09-14T02:49:27.817Z,20.80
2022-09-14T02:51:35.669Z,20.80
2022-09-14T02:53:44.508Z,20.90
2022-09-14T02:55:52.267Z,20.90
2022-09-14T02:58:02.978Z,21.00
2022-09-14T03:00:06.476Z,21.10
2022-09-14T03:02:09.489Z,21.10
2022-09-14T03:04:12.274Z,21.00
2022-09-14T03:06:15.174Z,21.00
2022-09-14T03:08:19.238Z,20.90
2022-09-14T03:10:22.326Z,21.00
2022-09-14T03:12:24.980Z,21.00
2022-09-14T03:14:27.781Z,21.00
2022-09-14T03:16:30.597Z,21.10
2022-09-14T03:18:33.721Z,21.10
2022-09-14T03:20:37.289Z,21.00
2022-09-14T03:22:39.981Z,21.00
2022-09-14T03:24:44.108Z,21.00
2022-09-14T03:26:47.272Z,21.10
2022-09-14T03:28:51.898Z,21.10
2022-09-14T03:30:55.216Z,21.20
2022-09-14T03:32:59.209Z,21.20
2022-09-14T03:35:01.959Z,21.10
2022-09-14T03:37:04.667Z,21.10
2022-09-14T03:39:07.382Z,21.10
2022-09-14T03:41:12.239Z,21.10
2022-09-14T03:43:15.174Z,20.90
2022-09-14T03:45:19.341Z,20.90
2022-09-14T03:47:22.016Z,20.90
2022-09-14T03:49:24.798Z,20.90
2022-09-14T03:51:27.997Z,20.90
2022-09-14T03:53:31.344Z,21.00
2022-09-14T03:55:34.231Z,21.00
2022-09-14T03:57:38.343Z,21.00
2022-09-14T03:59:43.708Z,21.00
2022-09-14T04:01:47.030Z,21.00
2022-09-14T04:03:50.744Z,21.00
2022-09-14T04:05:56.747Z,21.00
2022-09-14T04:07:59.479Z,21.00
2022-09-14T04:10:02.214Z,20.90
2022-09-14T04:12:05.181Z,20.60
2022-09-14T04:14:09.378Z,20.50
2022-09-14T04:16:13.010Z,20.40
2022-09-14T04:18:15.882Z,20.40
2022-09-14T04:20:19.123Z,20.10
2022-09-14T04:22:21.837Z,20.00
2022-09-14T04:24:29.434Z,19.90
2022-09-14T04:26:33.446Z,19.80
2022-09-14T04:28:36.477Z,19.70
2022-09-14T04:30:40.522Z,19.70
2022-09-14T04:32:44.457Z,19.70
2022-09-14T04:34:47.173Z,19.60
2022-09-14T04:36:49.855Z,19.60
2022-09-14T04:38:55.138Z,19.70
2022-09-14T04:40:58.572Z,19.80
2022-09-14T04:43:01.277Z,20.00
2022-09-14T04:45:04.271Z,20.10
2022-09-14T04:47:08.574Z,20.20
2022-09-14T04:49:11.507Z,20.30
2022-09-14T04:51:17.008Z,20.30
2022-09-14T04:53:19.715Z,20.20
2022-09-14T04:55:24.108Z,20.10
2022-09-14T04:57:27.057Z,20.10
2022-09-14T04:59:29.746Z,20.00
2022-09-14T05:01:34.601Z,19.80
2022-09-14T05:03:39.829Z,19.80
2022-09-14T05:05:44.892Z,19.80
2022-09-14T05:07:47.762Z,19.80
2022-09-14T05:09:50.431Z,19.90
2022-09-14T05:11:53.138Z,20.10
2022-09-14T05:13:57.184Z,20.20
2022-09-14T05:16:06.910Z,20.20
2022-09-14T05:18:09.673Z,20.30
2022-09-14T05:20:13.788Z,20.30
2022-09-14T05:22:16.502Z,20.30
2022-09-14T05:24:20.433Z,20.40
2022-09-14T05:26:23.923Z,20.40
2022-09-14T05:28:26.939Z,20.40
2022-09-14T05:30:29.707Z,20.40
2022-09-14T05:32:32.413Z,20.40
2022-09-14T05:34:35.115Z,20.40
2022-09-14T05:36:40.659Z,20.40
2022-09-14T05:38:43.713Z,20.40
2022-09-14T05:40:46.427Z,20.40
2022-09-14T05:42:49.126Z,20.50
2022-09-14T05:44:52.254Z,20.50
2022-09-14T05:46:55.131Z,20.60
2022-09-14T05:48:57.924Z,20.60
2022-09-14T05:51:01.712Z,20.70
2022-09-14T05:53:05.779Z,20.70
2022-09-14T05:55:09.199Z,20.70
2022-09-14T05:57:11.997Z,20.80
2022-09-14T05:59:15.019Z,20.80
2022-09-14T06:01:20.061Z,20.80
2022-09-14T06:03:22.884Z,20.70
2022-09-14T06:05:26.209Z,20.60
2022-09-14T06:07:28.967Z,20.40
2022-09-14T06:09:33.415Z,20.10
2022-09-14T06:11:37.320Z,20.00
2022-09-14T06:13:40.269Z,19.80
2022-09-14T06:15:43.044Z,19.80
2022-09-14T06:17:45.726Z,19.70
2022-09-14T06:19:48.422Z,19.50
2022-09-14T06:21:51.096Z,19.40
2022-09-14T06:23:54.916Z,19.40
2022-09-14T06:26:00.770Z,19.30
2022-09-14T06:28:03.883Z,19.30
2022-09-14T06:30:07.955Z,19.40
2022-09-14T06:32:11.200Z,19.50
2022-09-14T06:34:13.903Z,19.70
2022-09-14T06:36:19.595Z,19.80
2022-09-14T06:38:22.512Z,19.90
2022-09-14T06:40:27.073Z,20.00
2022-09-14T06:42:31.704Z,20.00
2022-09-14T06:44:34.389Z,19.90
2022-09-14T06:46:37.242Z,20.00
2022-09-14T06:48:41.768Z,20.00
2022-09-14T06:50:44.442Z,19.90
2022-09-14T06:52:47.143Z,19.80
2022-09-14T06:54:49.835Z,19.70
2022-09-14T06:56:52.679Z,19.70
2022-09-14T06:58:56.739Z,19.70
2022-09-14T07:01:02.803Z,19.70
2022-09-14T07:03:05.725Z,19.80
2022-09-14T07:05:09.373Z,19.80
2022-09-14T07:07:12.179Z,19.90
2022-09-14T07:09:15.108Z,20.00
2022-09-14T07:11:19.422Z,20.10
2022-09-14T07:13:22.101Z,20.20
2022-09-14T07:15:26.238Z,20.20
2022-09-14T07:17:28.905Z,20.30
2022-09-14T07:19:31.866Z,20.30
2022-09-14T07:21:35.778Z,20.40
2022-09-14T07:23:41.441Z,20.40
2022-09-14T07:25:44.099Z,20.40
2022-09-14T07:27:46.755Z,20.40
2022-09-14T07:29:49.430Z,20.40
2022-09-14T07:31:54.796Z,20.40
2022-09-14T07:33:58.904Z,20.40
2022-09-14T07:36:08.526Z,20.30
2022-09-14T07:38:11.226Z,20.40
2022-09-14T07:40:14.000Z,20.50
2022-09-14T07:42:16.800Z,20.60
2022-09-14T07:44:20.054Z,20.60
2022-09-14T07:46:23.352Z,20.70
2022-09-14T07:48:27.685Z,20.70
2022-09-14T07:50:30.417Z,20.60
2022-09-14T07:52:38.004Z,20.70
2022-09-14T07:54:41.838Z,20.70
2022-09-14T07:56:45.418Z,20.60
2022-09-14T07:58:51.479Z,20.70
2022-09-14T08:01:00.553Z,20.70
2022-09-14T08:03:03.305Z,20.70
2022-09-14T08:05:08.387Z,20.70
2022-09-14T08:07:11.191Z,20.70
2022-09-14T08:09:14.241Z,20.70
2022-09-14T08:11:19.401Z,20.70
2022-09-14T08:13:22.102Z,20.80
2022-09-14T08:15:28.384Z,20.80
2022-09-14T08:17:31.429Z,20.80
2022-09-14T08:19:34.158Z,20.80
2022-09-14T08:21:39.853Z,20.80
2022-09-14T08:23:46.261Z,20.80
2022-09-14T08:25:48.986Z,20.80
2022-09-14T08:27:51.662Z,20.70
2022-09-14T08:29:54.418Z,20.80
2022-09-14T08:31:58.384Z,20.80
2022-09-14T08:34:03.585Z,20.80
2022-09-14T08:36:08.521Z,20.80
2022-09-14T08:38:12.593Z,20.90
2022-09-14T08:40:17.514Z,20.80
2022-09-14T08:42:25.005Z,20.80
2022-09-14T08:44:30.133Z,20.70
2022-09-14T08:46:36.558Z,20.60
2022-09-14T08:48:45.923Z,20.50
2022-09-14T08:50:53.669Z,20.50
2022-09-14T08:52:56.482Z,20.50
2022-09-14T08:55:03.145Z,20.50
2022-09-14T08:57:16.716Z,20.50
2022-09-14T08:59:34.114Z,20.50
2022-09-14T09:01:45.381Z,20.50
2022-09-14T09:04:06.536Z,20.50
2022-09-14T09:06:16.437Z,20.60
2022-09-14T09:08:25.534Z,20.60
2022-09-14T09:10:30.647Z,20.80
2022-09-14T09:12:38.444Z,20.80
2022-09-14T09:14:43.934Z,20.80
2022-09-14T09:16:50.505Z,20.90
2022-09-14T09:18:59.792Z,21.00
2022-09-14T09:21:06.641Z,21.00
2022-09-14T09:23:15.017Z,21.00
2022-09-14T09:25:24.011Z,21.00
2022-09-14T09:27:28.656Z,21.00
2022-09-14T09:29:31.447Z,20.90
2022-09-14T09:31:36.284Z,20.90
2022-09-14T09:33:39.096Z,20.90
2022-09-14T09:35:41.843Z,20.90
2022-09-14T09:37:44.576Z,21.00
2022-09-14T09:39:47.984Z,20.90
2022-09-14T09:41:56.830Z,20.90
2022-09-14T09:44:02.778Z,20.90
2022-09-14T09:46:08.315Z,20.90
2022-09-14T09:48:11.714Z,20.80
2022-09-14T09:50:21.088Z,20.80
2022-09-14T09:52:23.848Z,20.80
2022-09-14T09:54:30.494Z,20.80
2022-09-14T09:56:36.150Z,20.70
2022-09-14T09:58:40.045Z,20.80
2022-09-14T10:00:57.866Z,20.80
2022-09-14T10:03:15.761Z,20.80
2022-09-14T10:05:24.102Z,20.80
2022-09-14T10:07:27.679Z,20.80
2022-09-14T10:09:30.512Z,20.80
2022-09-14T10:11:37.779Z,20.90
2022-09-14T10:13:40.971Z,20.90
2022-09-14T10:15:45.274Z,21.10
2022-09-14T10:18:06.676Z,21.10
2022-09-14T10:20:22.278Z,21.10
2022-09-14T10:22:30.986Z,21.20
2022-09-14T10:24:35.323Z,21.20
2022-09-14T10:26:38.530Z,21.20
2022-09-14T10:28:43.224Z,21.20
2022-09-14T10:30:51.422Z,21.20
2022-09-14T10:33:00.415Z,21.20
2022-09-14T10:35:03.949Z,21.10
2022-09-14T10:37:17.297Z,21.00
2022-09-14T10:39:26.319Z,21.10
2022-09-14T10:41:35.263Z,21.10
2022-09-14T10:43:49.802Z,21.10
2022-09-14T10:46:00.198Z,21.10
2022-09-14T10:48:22.161Z,21.20
2022-09-14T10:50:42.738Z,21.20
2022-09-14T10:52:53.761Z,21.20
2022-09-14T10:55:11.103Z,21.20
2022-09-14T10:57:23.925Z,21.10
2022-09-14T10:59:33.412Z,21.20
2022-09-14T11:01:57.776Z,21.20
2022-09-14T11:04:16.272Z,21.10
2022-09-14T11:06:29.574Z,21.10
2022-09-14T11:08:37.309Z,21.00
2022-09-14T11:10:50.670Z,21.00
2022-09-14T11:13:08.795Z,21.10
2022-09-14T11:15:21.573Z,21.20
2022-09-14T11:17:49.597Z,21.10
2022-09-14T11:20:01.534Z,21.20
2022-09-14T11:22:11.439Z,21.20
2022-09-14T11:24:20.501Z,21.20
2022-09-14T11:26:31.379Z,21.20
2022-09-14T11:28:40.942Z,21.10
2022-09-14T11:30:47.912Z,21.10
2022-09-14T11:32:55.886Z,21.10
2022-09-14T11:35:03.319Z,21.10
2022-09-14T11:37:09.944Z,21.10
2022-09-14T11:39:17.780Z,21.00
2022-09-14T11:41:26.024Z,21.00
2022-09-14T11:43:32.851Z,20.90
2022-09-14T11:45:38.075Z,20.90
2022-09-14T11:47:46.409Z,20.90
2022-09-14T11:49:57.653Z,20.80
2022-09-14T11:52:08.633Z,20.70
2022-09-14T11:54:16.628Z,20.70
2022-09-14T11:56:26.485Z,20.60
2022-09-14T11:58:30.893Z,20.60
2022-09-14T12:01:02.985Z,20.60
2022-09-14T12:03:17.953Z,20.70
2022-09-14T12:05:34.370Z,20.70
2022-09-14T12:07:59.885Z,20.70
2022-09-14T12:10:19.226Z,20.80
2022-09-14T12:12:46.646Z,20.80
2022-09-14T12:14:50.407Z,20.90
2022-09-14T12:17:38.710Z,20.90
2022-09-14T12:19:43.585Z,20.80
2022-09-14T12:21:47.921Z,20.90
2022-09-14T12:23:57.030Z,20.90
2022-09-14T12:26:21.384Z,20.90
2022-09-14T12:28:30.575Z,21.00
2022-09-14T12:31:10.524Z,21.00
2022-09-14T12:34:05.994Z,20.90
2022-09-14T12:36:10.873Z,20.90
2022-09-14T12:38:42.953Z,20.70
2022-09-14T12:40:45.676Z,20.60
2022-09-14T12:42:48.635Z,20.60
2022-09-14T12:44:51.457Z,20.60
2022-09-14T12:46:55.550Z,20.60
2022-09-14T12:49:03.238Z,20.70
2022-09-14T12:51:07.037Z,20.70
2022-09-14T12:53:32.636Z,20.80
2022-09-14T12:55:45.035Z,20.80
2022-09-14T12:57:52.667Z,20.80
2022-09-14T13:00:01.973Z,20.70
2022-09-14T13:02:26.821Z,20.70
2022-09-14T13:04:36.563Z,20.70
2022-09-14T13:06:43.686Z,20.70
2022-09-14T13:08:49.140Z,20.70
2022-09-14T13:10:53.211Z,20.70
2022-09-14T13:12:58.133Z,20.70
2022-09-14T13:15:04.075Z,20.70
2022-09-14T13:17:14.061Z,20.80
2022-09-14T13:19:22.539Z,20.80
2022-09-14T13:21:26.650Z,20.80
2022-09-14T13:23:32.910Z,20.80
2022-09-14T13:25:37.364Z,20.90
2022-09-14T13:27:40.844Z,20.90
2022-09-14T13:29:43.654Z,21.00
2022-09-14T13:31:46.856Z,21.00
2022-09-14T13:33:52.051Z,21.10
2022-09-14T13:35:56.621Z,21.20
2022-09-14T13:38:06.977Z,21.40
2022-09-14T13:40:10.634Z,21.40
2022-09-14T13:42:14.427Z,21.30
2022-09-14T13:44:18.313Z,21.50
2022-09-14T13:46:22.354Z,21.40
2022-09-14T13:48:25.841Z,21.40
2022-09-14T13:50:28.859Z,21.30
2022-09-14T13:53:00.596Z,21.20
2022-09-14T13:55:19.047Z,21.20
2022-09-14T13:57:23.277Z,21.20
2022-09-14T13:59:26.133Z,21.20
2022-09-14T14:01:29.884Z,21.20
2022-09-14T14:03:36.690Z,21.20
2022-09-14T14:05:43.623Z,21.20
2022-09-14T14:07:46.933Z,21.20
2022-09-14T14:09:52.311Z,21.20
2022-09-14T14:11:56.732Z,21.30
2022-09-14T14:14:13.287Z,21.30
2022-09-14T14:16:19.218Z,21.20
2022-09-14T14:18:37.569Z,21.20
2022-09-14T14:20:40.694Z,21.20
2022-09-14T14:22:56.261Z,21.20
2022-09-14T14:25:13.258Z,21.20
2022-09-14T14:27:32.041Z,21.10
2022-09-14T14:29:34.775Z,21.10
2022-09-14T14:31:37.677Z,21.10
2022-09-14T14:33:46.171Z,21.20
2022-09-14T14:35:51.743Z,21.20
2022-09-14T14:37:54.674Z,21.20
2022-09-14T14:39:57.377Z,21.10
2022-09-14T14:42:02.519Z,21.10
2022-09-14T14:44:10.888Z,21.10
2022-09-14T14:46:14.794Z,21.10
2022-09-14T14:48:18.314Z,21.10
2022-09-14T14:50:23.806Z,21.10
2022-09-14T14:52:26.523Z,21.10
2022-09-14T14:54:29.224Z,21.10
2022-09-14T14:56:31.951Z,21.10
2022-09-14T14:58:36.435Z,21.10
2022-09-14T15:00:40.638Z,21.10
2022-09-14T15:02:43.927Z,21.10
2022-09-14T15:04:48.273Z,21.10
2022-09-14T15:06:51.388Z,21.10
2022-09-14T15:08:54.749Z,21.10
2022-09-14T15:10:58.263Z,21.10
2022-09-14T15:13:01.145Z,21.20
2022-09-14T15:15:04.544Z,21.20
2022-09-14T15:17:08.793Z,21.20
2022-09-14T15:19:11.525Z,21.30
2022-09-14T15:21:14.288Z,21.20
2022-09-14T15:23:17.402Z,21.20
2022-09-14T15:25:22.000Z,21.20
2022-09-14T15:27:24.701Z,21.30
2022-09-14T15:29:27.438Z,21.20
2022-09-14T15:31:30.504Z,21.20
2022-09-14T15:33:34.770Z,21.20
2022-09-14T15:35:37.516Z,21.10
2022-09-14T15:37:40.518Z,21.10
2022-09-14T15:39:46.112Z,21.00
2022-09-14T15:41:53.003Z,20.90
2022-09-14T15:43:55.735Z,20.90
2022-09-14T15:46:03.425Z,21.00
2022-09-14T15:48:06.357Z,20.90
2022-09-14T15:50:11.958Z,20.90
2022-09-14T15:52:14.692Z,20.90
2022-09-14T15:54:17.918Z,20.90
2022-09-14T15:56:20.691Z,21.00
2022-09-14T15:58:23.364Z,21.00
2022-09-14T16:00:26.065Z,20.90
2022-09-14T16:02:28.874Z,20.90
2022-09-14T16:04:36.979Z,20.90
2022-09-14T16:06:41.537Z,20.90
2022-09-14T16:08:44.600Z,20.90
2022-09-14T16:10:47.698Z,20.90
2022-09-14T16:12:50.548Z,21.00
2022-09-14T16:14:53.292Z,20.90
2022-09-14T16:16:56.121Z,20.90
2022-09-14T16:18:59.104Z,20.90
2022-09-14T16:21:07.866Z,20.90
2022-09-14T16:23:12.427Z,20.80
2022-09-14T16:25:15.400Z,20.80
2022-09-14T16:27:18.111Z,20.80
2022-09-14T16:29:24.059Z,20.80
2022-09-14T16:31:28.410Z,20.80
2022-09-14T16:33:31.119Z,20.80
2022-09-14T16:35:34.237Z,20.70
2022-09-14T16:37:36.991Z,20.70
2022-09-14T16:39:41.211Z,20.70
2022-09-14T16:41:44.003Z,20.70
2022-09-14T16:43:46.947Z,20.50
2022-09-14T16:45:49.733Z,20.40
2022-09-14T16:47:52.770Z,20.20
2022-09-14T16:49:55.611Z,20.20
2022-09-14T16:52:00.581Z,20.10
2022-09-14T16:54:03.342Z,20.00
2022-09-14T16:56:08.853Z,20.00
2022-09-14T16:58:11.527Z,20.10
2022-09-14T17:00:15.121Z,20.10
2022-09-14T17:02:17.927Z,20.10
2022-09-14T17:04:22.023Z,20.10
2022-09-14T17:06:31.622Z,20.10
2022-09-14T17:08:35.411Z,20.20
2022-09-14T17:10:38.098Z,20.30
2022-09-14T17:12:42.119Z,20.40
2022-09-14T17:14:44.825Z,20.40
2022-09-14T17:16:48.052Z,20.40
2022-09-14T17:18:52.598Z,20.50
2022-09-14T17:20:56.762Z,20.50
2022-09-14T17:22:59.465Z,20.50
2022-09-14T17:25:02.171Z,20.40
2022-09-14T17:27:05.066Z,20.50
2022-09-14T17:29:09.163Z,20.50
2022-09-14T17:31:13.814Z,20.50
2022-09-14T17:33:16.549Z,20.40
2022-09-14T17:35:19.298Z,20.50
2022-09-14T17:37:23.597Z,20.50
2022-09-14T17:39:26.495Z,20.50
2022-09-14T17:41:31.569Z,20.60
2022-09-14T17:43:35.839Z,20.60
2022-09-14T17:45:40.582Z,20.60
2022-09-14T17:47:43.317Z,20.60
2022-09-14T17:49:46.003Z,20.50
2022-09-14T17:51:49.235Z,20.40
2022-09-14T17:53:53.613Z,20.30
2022-09-14T17:56:02.778Z,20.20
2022-09-14T17:58:05.873Z,20.10
2022-09-14T18:00:10.201Z,20.10
2022-09-14T18:02:14.328Z,19.90
2022-09-14T18:04:17.433Z,19.80
2022-09-14T18:06:21.021Z,19.70
2022-09-14T18:08:23.734Z,19.60
2022-09-14T18:10:26.795Z,19.60
2022-09-14T18:12:33.863Z,19.50
2022-09-14T18:14:36.660Z,19.60
2022-09-14T18:16:39.810Z,19.50
2022-09-14T18:18:44.465Z,19.40
2022-09-14T18:20:47.205Z,19.30
2022-09-14T18:22:49.976Z,19.40
2022-09-14T18:24:52.762Z,19.30
2022-09-14T18:26:55.455Z,19.30
2022-09-14T18:28:58.688Z,19.30
2022-09-14T18:31:02.408Z,19.30
2022-09-14T18:33:05.257Z,19.30
2022-09-14T18:35:10.204Z,19.30
2022-09-14T18:37:13.469Z,19.30
2022-09-14T18:39:16.573Z,19.20
2022-09-14T18:41:20.055Z,19.10
2022-09-14T18:43:22.800Z,19.00
2022-09-14T18:45:25.532Z,18.90
2022-09-14T18:47:28.256Z,18.80
2022-09-14T18:49:30.944Z,18.90
2022-09-14T18:51:34.969Z,18.80
2022-09-14T18:53:37.915Z,18.80
2022-09-14T18:55:40.641Z,18.70
2022-09-14T18:57:47.000Z,18.60
2022-09-14T18:59:49.705Z,18.60
2022-09-14T19:01:52.437Z,18.60
2022-09-14T19:03:55.976Z,18.70
2022-09-14T19:05:59.396Z,18.70
2022-09-14T19:08:03.616Z,18.80
2022-09-14T19:10:11.476Z,18.90
2022-09-14T19:12:14.541Z,19.00
2022-09-14T19:14:17.554Z,19.10
2022-09-14T19:16:20.413Z,19.00
2022-09-14T19:18:23.526Z,18.90
2022-09-14T19:20:38.108Z,18.80
2022-09-14T19:22:46.387Z,18.60
2022-09-14T19:24:50.467Z,18.60
2022-09-14T19:26:53.562Z,18.70
2022-09-14T19:28:56.285Z,18.80
2022-09-14T19:30:59.245Z,18.70
2022-09-14T19:33:01.988Z,18.70
2022-09-14T19:35:05.832Z,18.60
2022-09-14T19:37:08.636Z,18.60
2022-09-14T19:39:11.798Z,18.50
2022-09-14T19:41:16.417Z,18.50
2022-09-14T19:43:19.318Z,18.50
2022-09-14T19:45:22.119Z,18.50
2022-09-14T19:47:24.823Z,18.60
2022-09-14T19:49:27.619Z,18.50
2022-09-14T19:51:31.394Z,18.40
2022-09-14T19:53:35.623Z,18.30
2022-09-14T19:55:38.494Z,18.30
2022-09-14T19:57:42.609Z,18.20
2022-09-14T19:59:45.629Z,18.10
2022-09-14T20:01:48.913Z,18.20
2022-09-14T20:03:52.117Z,18.20
2022-09-14T20:06:00.753Z,18.20
2022-09-14T20:08:03.898Z,18.20
2022-09-14T20:10:07.579Z,18.20
2022-09-14T20:12:10.261Z,18.10
2022-09-14T20:14:17.435Z,18.10
2022-09-14T20:16:22.919Z,18.10
2022-09-14T20:18:25.705Z,18.00
2022-09-14T20:20:28.586Z,18.00
2022-09-14T20:22:31.307Z,17.90
2022-09-14T20:24:35.770Z,17.90
2022-09-14T20:26:38.565Z,17.80
2022-09-14T20:28:42.532Z,17.80
2022-09-14T20:30:58.011Z,17.70
2022-09-14T20:33:00.713Z,17.60
2022-09-14T20:35:03.506Z,17.70
2022-09-14T20:37:06.369Z,17.80
2022-09-14T20:39:09.698Z,17.80
2022-09-14T20:41:15.815Z,17.90
2022-09-14T20:43:18.619Z,17.90
2022-09-14T20:45:21.448Z,17.90
2022-09-14T20:47:25.601Z,18.00
2022-09-14T20:49:29.017Z,18.00
2022-09-14T20:51:32.291Z,18.10
2022-09-14T20:53:37.184Z,18.00
2022-09-14T20:55:39.867Z,18.00
2022-09-14T20:57:42.597Z,17.90
2022-09-14T20:59:45.321Z,17.80
2022-09-14T21:01:50.316Z,17.80
2022-09-14T21:03:54.901Z,17.80
2022-09-14T21:06:00.142Z,17.80
2022-09-14T21:08:04.068Z,17.80
2022-09-14T21:10:08.125Z,17.70
2022-09-14T21:12:13.994Z,17.70
2022-09-14T21:14:18.243Z,17.80
2022-09-14T21:16:22.951Z,17.80
2022-09-14T21:18:25.845Z,17.90
2022-09-14T21:20:30.009Z,17.90
2022-09-14T21:22:32.788Z,18.00
2022-09-14T21:24:36.192Z,18.00
2022-09-14T21:26:42.543Z,18.00
2022-09-14T21:28:45.939Z,18.10
2022-09-14T21:30:49.196Z,18.10
2022-09-14T21:32:52.278Z,18.20
2022-09-14T21:34:55.000Z,18.30
2022-09-14T21:36:59.078Z,18.40
2022-09-14T21:39:05.159Z,18.40
2022-09-14T21:41:09.341Z,18.40
2022-09-14T21:43:12.171Z,18.30
2022-09-14T21:45:15.297Z,18.30
2022-09-14T21:47:17.984Z,18.30
2022-09-14T21:49:22.290Z,18.40
2022-09-14T21:51:27.018Z,18.40
2022-09-14T21:53:31.062Z,18.30
2022-09-14T21:55:38.514Z,18.10
2022-09-14T21:57:41.459Z,18.00
2022-09-14T21:59:44.371Z,18.00
2022-09-14T22:01:47.589Z,18.10
2022-09-14T22:03:51.552Z,18.20
2022-09-14T22:05:58.925Z,18.20
2022-09-14T22:08:01.800Z,18.20
2022-09-14T22:10:07.969Z,18.20
2022-09-14T22:12:10.766Z,18.30
2022-09-14T22:14:15.429Z,18.40
2022-09-14T22:16:18.518Z,18.50
2022-09-14T22:18:21.240Z,18.50
2022-09-14T22:20:24.339Z,18.50
2022-09-14T22:22:27.133Z,18.50
2022-09-14T22:24:36.995Z,18.50
2022-09-14T22:26:43.225Z,18.50
2022-09-14T22:28:45.913Z,18.50
2022-09-14T22:30:51.979Z,18.50
2022-09-14T22:32:54.721Z,18.60
2022-09-14T22:34:57.411Z,18.70
2022-09-14T22:37:00.368Z,18.60
2022-09-14T22:39:03.333Z,18.60
2022-09-14T22:41:08.151Z,18.50
2022-09-14T22:43:12.170Z,18.50
2022-09-14T22:45:14.968Z,18.50
2022-09-14T22:47:17.642Z,18.50
2022-09-14T22:49:20.303Z,18.40
2022-09-14T22:51:24.659Z,18.30
2022-09-14T22:53:27.862Z,18.30
2022-09-14T22:55:30.587Z,18.30
2022-09-14T22:57:33.304Z,18.40
2022-09-14T22:59:37.361Z,18.40
2022-09-14T23:01:41.914Z,18.30
2022-09-14T23:03:44.747Z,18.20
2022-09-14T23:05:51.980Z,18.20
2022-09-14T23:07:56.027Z,18.20
2022-09-14T23:09:59.727Z,18.20
2022-09-14T23:12:03.007Z,18.10
2022-09-14T23:14:05.733Z,18.00
2022-09-14T23:16:14.392Z,17.90
2022-09-14T23:18:17.178Z,17.90
2022-09-14T23:20:19.962Z,17.90
2022-09-14T23:22:22.668Z,17.90
2022-09-14T23:24:25.374Z,18.00
2022-09-14T23:26:28.949Z,18.10
2022-09-14T23:28:32.003Z,18.10
2022-09-14T23:30:36.398Z,18.10
2022-09-14T23:32:40.517Z,18.00
2022-09-14T23:34:43.198Z,18.00
2022-09-14T23:36:45.902Z,18.00
2022-09-14T23:38:48.953Z,18.00
2022-09-14T23:40:51.949Z,18.00
2022-09-14T23:42:54.965Z,18.10
2022-09-14T23:44:57.706Z,18.10
2022-09-14T23:47:00.568Z,18.10
2022-09-14T23:49:04.595Z,18.00
2022-09-14T23:51:09.063Z,18.00
2022-09-14T23:53:11.826Z,18.00
2022-09-14T23:55:14.583Z,18.00
2022-09-14T23:57:17.670Z,18.00
2022-09-14T23:59:20.414Z,18.00
